Chipping Ongar, United Kingdom
Current Conditions -  °F | °C
As of 5:50 PM on Monday 24 Nov 2014 (Local Time) from EGSS Reporting Station
Clear Clear  
Wind Chill: 37°   Ceiling: Unl
Heat Index: 37°   Visibility: 5mi
Dew Point: 36°   Wind: 2mph
Humidity: 93%   Direction: 320°NW
Pressure: 30.33"   Gusts: NA
Location:  51.7°N, 0.25°E
Report Text: EGSS 241750Z 32002KT 8000 NSC 03/02 Q1027
Loading
Personal Weather Stations






























Interactive Weather Map New forecast layout! Learn more

10-Day Weather Forecast

Advertisements
Track Severe Weather on mobile